createdAt,value
2023-03-07T00:02:16.190Z,99891.92
2023-03-07T00:04:45.566Z,99887.75
2023-03-07T00:07:13.812Z,99881.92
2023-03-07T00:09:42.462Z,99880.84
2023-03-07T00:12:11.146Z,99889.77
2023-03-07T00:14:39.326Z,99896.50
2023-03-07T00:17:07.388Z,99896.33
2023-03-07T00:19:35.664Z,99891.27
2023-03-07T00:22:03.835Z,99895.23
2023-03-07T00:24:32.215Z,99896.70
2023-03-07T00:27:00.284Z,99894.90
2023-03-07T00:29:28.766Z,99890.27
2023-03-07T00:31:56.945Z,99889.36
2023-03-07T00:34:25.122Z,99889.86
2023-03-07T00:36:53.285Z,99884.22
2023-03-07T00:39:21.461Z,99880.13
2023-03-07T00:41:49.644Z,99874.75
2023-03-07T00:44:17.710Z,99869.54
2023-03-07T00:46:45.886Z,99864.91
2023-03-07T00:49:13.956Z,99862.65
2023-03-07T00:51:42.237Z,99866.48
2023-03-07T00:54:10.307Z,99870.36
2023-03-07T00:56:38.584Z,99863.15
2023-03-07T00:59:07.373Z,99860.04
2023-03-07T01:01:35.652Z,99864.91
2023-03-07T01:04:04.083Z,99863.63
2023-03-07T01:06:33.230Z,99860.74
2023-03-07T01:09:08.244Z,99859.56
2023-03-07T01:11:37.255Z,99859.38
2023-03-07T01:14:06.257Z,99855.38
2023-03-07T01:16:37.694Z,99849.00
2023-03-07T01:19:07.514Z,99841.19
2023-03-07T01:21:37.702Z,99836.36
2023-03-07T01:24:06.517Z,99836.34
2023-03-07T01:26:35.059Z,99832.66
2023-03-07T01:29:05.229Z,99826.31
2023-03-07T01:31:36.162Z,99820.69
2023-03-07T01:34:05.345Z,99809.61
2023-03-07T01:36:36.874Z,99807.10
2023-03-07T01:39:08.369Z,99800.77
2023-03-07T01:41:38.596Z,99803.55
2023-03-07T01:44:19.409Z,99802.83
2023-03-07T01:47:00.843Z,99799.42
2023-03-07T01:49:39.274Z,99801.34
2023-03-07T01:52:07.345Z,99808.08
2023-03-07T01:54:43.096Z,99814.37
2023-03-07T01:57:11.090Z,99813.95
2023-03-07T01:59:42.708Z,99814.90
2023-03-07T02:02:14.611Z,99812.13
2023-03-07T02:04:45.097Z,99800.04
2023-03-07T02:07:14.097Z,99796.14
2023-03-07T02:09:44.062Z,99792.04
2023-03-07T02:12:13.715Z,99784.39
2023-03-07T02:14:45.951Z,99783.17
2023-03-07T02:17:14.285Z,99781.80
2023-03-07T02:19:55.032Z,99784.97
2023-03-07T02:22:23.217Z,99798.55
2023-03-07T02:24:53.445Z,99802.19
2023-03-07T02:27:23.454Z,99804.69
2023-03-07T02:29:52.339Z,99807.98
2023-03-07T02:32:20.594Z,99812.47
2023-03-07T02:34:48.794Z,99810.05
2023-03-07T02:37:26.380Z,99804.77
2023-03-07T02:39:55.386Z,99797.33
2023-03-07T02:42:26.116Z,99784.81
2023-03-07T02:45:00.944Z,99776.63
2023-03-07T02:47:30.959Z,99781.62
2023-03-07T02:49:59.763Z,99779.30
2023-03-07T02:52:29.983Z,99778.55
2023-03-07T02:54:58.872Z,99782.69
2023-03-07T02:57:30.831Z,99778.14
2023-03-07T03:00:00.245Z,99779.89
2023-03-07T03:02:28.814Z,99779.77
2023-03-07T03:04:57.126Z,99780.80
2023-03-07T03:07:25.162Z,99778.20
2023-03-07T03:09:53.240Z,99770.58
2023-03-07T03:12:21.928Z,99762.11
2023-03-07T03:14:50.511Z,99758.02
2023-03-07T03:17:18.908Z,99761.50
2023-03-07T03:19:47.167Z,99761.88
2023-03-07T03:22:15.348Z,99762.66
2023-03-07T03:24:46.289Z,99760.67
2023-03-07T03:27:16.817Z,99763.32
2023-03-07T03:29:45.942Z,99763.57
2023-03-07T03:32:14.771Z,99769.30
2023-03-07T03:34:44.405Z,99768.66
2023-03-07T03:37:13.192Z,99770.25
2023-03-07T03:39:41.571Z,99767.55
2023-03-07T03:42:10.363Z,99761.16
2023-03-07T03:44:38.739Z,99753.34
2023-03-07T03:47:06.709Z,99753.35
2023-03-07T03:49:34.984Z,99746.06
2023-03-07T03:52:05.070Z,99745.01
2023-03-07T03:54:33.789Z,99743.72
2023-03-07T03:57:02.070Z,99742.50
2023-03-07T03:59:31.471Z,99738.36
2023-03-07T04:01:59.939Z,99736.41
2023-03-07T04:04:28.062Z,99742.86
2023-03-07T04:06:56.197Z,99740.89
2023-03-07T04:09:24.378Z,99745.58
2023-03-07T04:11:52.770Z,99744.98
2023-03-07T04:14:21.132Z,99738.15
2023-03-07T04:16:49.656Z,99739.70
2023-03-07T04:19:18.303Z,99741.20
2023-03-07T04:21:46.577Z,99743.79
2023-03-07T04:24:17.203Z,99741.21
2023-03-07T04:26:45.477Z,99742.88
2023-03-07T04:29:13.556Z,99755.05
2023-03-07T04:31:44.468Z,99759.48
2023-03-07T04:34:13.074Z,99767.64
2023-03-07T04:36:41.350Z,99779.02
2023-03-07T04:39:09.626Z,99778.88
2023-03-07T04:41:38.007Z,99779.35
2023-03-07T04:44:10.993Z,99779.55
2023-03-07T04:46:39.885Z,99776.88
2023-03-07T04:49:08.064Z,99770.22
2023-03-07T04:51:36.543Z,99771.22
2023-03-07T04:54:04.826Z,99770.94
2023-03-07T04:56:33.100Z,99767.37
2023-03-07T04:59:02.093Z,99769.10
2023-03-07T05:01:30.326Z,99774.19
2023-03-07T05:03:59.488Z,99782.99
2023-03-07T05:06:27.953Z,99789.13
2023-03-07T05:08:56.117Z,99783.11
2023-03-07T05:11:24.256Z,99785.05
2023-03-07T05:13:53.397Z,99785.00
2023-03-07T05:16:23.509Z,99783.54
2023-03-07T05:18:51.553Z,99780.88
2023-03-07T05:21:20.368Z,99777.64
2023-03-07T05:23:48.315Z,99775.23
2023-03-07T05:26:16.663Z,99781.39
2023-03-07T05:28:44.860Z,99782.21
2023-03-07T05:31:13.148Z,99784.98
2023-03-07T05:33:42.832Z,99787.34
2023-03-07T05:36:11.567Z,99788.98
2023-03-07T05:38:40.335Z,99786.27
2023-03-07T05:41:08.730Z,99794.55
2023-03-07T05:43:37.521Z,99795.09
2023-03-07T05:46:05.617Z,99796.37
2023-03-07T05:48:34.076Z,99795.80
2023-03-07T05:51:02.761Z,99796.77
2023-03-07T05:53:31.610Z,99794.70
2023-03-07T05:56:00.443Z,99794.99
2023-03-07T05:58:29.747Z,99791.39
2023-03-07T06:00:58.426Z,99793.92
2023-03-07T06:03:26.924Z,99795.45
2023-03-07T06:05:55.388Z,99796.81
2023-03-07T06:08:23.564Z,99796.50
2023-03-07T06:10:53.181Z,99798.45
2023-03-07T06:13:22.989Z,99797.96
2023-03-07T06:15:52.172Z,99800.30
2023-03-07T06:18:21.280Z,99803.02
2023-03-07T06:20:59.181Z,99803.96
2023-03-07T06:23:28.993Z,99804.59
2023-03-07T06:25:57.782Z,99799.55
2023-03-07T06:28:26.908Z,99806.54
2023-03-07T06:30:55.566Z,99806.03
2023-03-07T06:33:24.866Z,99802.95
2023-03-07T06:35:53.313Z,99806.95
2023-03-07T06:38:21.521Z,99809.27
2023-03-07T06:40:56.738Z,99812.66
2023-03-07T06:43:25.143Z,99811.80
2023-03-07T06:45:53.702Z,99813.09
2023-03-07T06:48:22.442Z,99810.19
2023-03-07T06:50:50.487Z,99812.92
2023-03-07T06:53:18.767Z,99815.43
2023-03-07T06:55:50.872Z,99816.33
2023-03-07T06:58:18.996Z,99818.84
2023-03-07T07:00:47.079Z,99817.92
2023-03-07T07:03:15.504Z,99818.38
2023-03-07T07:05:43.737Z,99813.95
2023-03-07T07:08:12.516Z,99814.92
2023-03-07T07:10:41.222Z,99813.59
2023-03-07T07:13:09.536Z,99817.20
2023-03-07T07:15:37.696Z,99818.50
2023-03-07T07:18:06.447Z,99819.20
2023-03-07T07:20:35.317Z,99813.80
2023-03-07T07:23:03.949Z,99814.68
2023-03-07T07:25:31.996Z,99822.98
2023-03-07T07:28:00.253Z,99824.53
2023-03-07T07:30:28.624Z,99825.77
2023-03-07T07:32:57.273Z,99825.14
2023-03-07T07:35:25.447Z,99818.02
2023-03-07T07:37:54.605Z,99819.59
2023-03-07T07:40:22.793Z,99818.65
2023-03-07T07:42:55.046Z,99814.92
2023-03-07T07:45:37.774Z,99815.24
2023-03-07T07:48:06.775Z,99812.55
2023-03-07T07:50:36.137Z,99813.23
2023-03-07T07:53:05.385Z,99813.23
2023-03-07T07:55:33.564Z,99811.94
2023-03-07T07:58:02.493Z,99809.24
2023-03-07T08:00:31.377Z,99814.69
2023-03-07T08:03:00.418Z,99819.45
2023-03-07T08:05:28.592Z,99816.35
2023-03-07T08:07:57.062Z,99816.40
2023-03-07T08:10:25.248Z,99823.61
2023-03-07T08:12:53.762Z,99821.60
2023-03-07T08:15:22.007Z,99822.80
2023-03-07T08:17:51.561Z,99819.06
2023-03-07T08:20:22.570Z,99816.27
2023-03-07T08:22:51.765Z,99817.73
2023-03-07T08:25:22.591Z,99818.45
2023-03-07T08:27:55.039Z,99816.64
2023-03-07T08:30:23.649Z,99812.38
2023-03-07T08:32:53.255Z,99808.40
2023-03-07T08:35:21.717Z,99809.42
2023-03-07T08:37:53.838Z,99802.86
2023-03-07T08:40:22.844Z,99803.55
2023-03-07T08:42:50.892Z,99804.45
2023-03-07T08:45:18.976Z,99805.36
2023-03-07T08:47:47.074Z,99807.09
2023-03-07T08:50:15.281Z,99804.66
2023-03-07T08:52:44.077Z,99808.08
2023-03-07T08:55:12.249Z,99807.02
2023-03-07T08:57:40.385Z,99802.17
2023-03-07T09:00:11.068Z,99800.38
2023-03-07T09:02:39.411Z,99797.15
2023-03-07T09:05:07.816Z,99794.42
2023-03-07T09:07:35.945Z,99794.42
2023-03-07T09:10:06.033Z,99789.48
2023-03-07T09:12:34.873Z,99789.96
2023-03-07T09:15:03.054Z,99794.30
2023-03-07T09:17:31.166Z,99795.52
2023-03-07T09:19:59.336Z,99792.27
2023-03-07T09:22:27.714Z,99792.88
2023-03-07T09:24:55.722Z,99787.85
2023-03-07T09:27:23.760Z,99785.77
2023-03-07T09:29:51.793Z,99786.02
2023-03-07T09:32:20.244Z,99784.53
2023-03-07T09:34:48.233Z,99785.20
2023-03-07T09:37:16.319Z,99783.61
2023-03-07T09:39:44.596Z,99787.24
2023-03-07T09:42:12.751Z,99787.54
2023-03-07T09:44:46.928Z,99786.38
2023-03-07T09:47:42.268Z,99786.23
2023-03-07T09:50:13.823Z,99784.84
2023-03-07T09:52:43.070Z,99776.56
2023-03-07T09:55:17.596Z,99768.85
2023-03-07T09:57:50.314Z,99765.92
2023-03-07T10:00:27.449Z,99767.33
2023-03-07T10:03:12.699Z,99765.29
2023-03-07T10:05:43.189Z,99766.08
2023-03-07T10:08:20.097Z,99766.29
2023-03-07T10:11:03.622Z,99765.89
2023-03-07T10:13:50.381Z,99766.16
2023-03-07T10:16:41.657Z,99767.65
2023-03-07T10:19:13.958Z,99763.80
2023-03-07T10:21:57.278Z,99756.02
2023-03-07T10:24:31.451Z,99757.31
2023-03-07T10:26:59.560Z,99758.19
2023-03-07T10:29:32.388Z,99752.11
2023-03-07T10:32:14.543Z,99742.16
2023-03-07T10:34:42.801Z,99743.23
2023-03-07T10:37:19.356Z,99742.77
2023-03-07T10:39:55.186Z,99734.77
2023-03-07T10:42:32.281Z,99730.89
2023-03-07T10:45:01.425Z,99725.14
2023-03-07T10:47:29.835Z,99721.48
2023-03-07T10:50:11.534Z,99717.55
2023-03-07T10:52:41.383Z,99712.58
2023-03-07T10:55:28.252Z,99706.48
2023-03-07T10:58:12.244Z,99710.33
2023-03-07T11:00:40.487Z,99705.93
2023-03-07T11:03:25.822Z,99702.76
2023-03-07T11:05:54.223Z,99700.89
2023-03-07T11:08:22.342Z,99691.88
2023-03-07T11:10:50.400Z,99693.79
2023-03-07T11:13:19.720Z,99691.32
2023-03-07T11:15:47.778Z,99689.55
2023-03-07T11:18:28.228Z,99691.75
2023-03-07T11:20:57.174Z,99682.39
2023-03-07T11:23:26.718Z,99680.35
2023-03-07T11:25:55.756Z,99675.58
2023-03-07T11:28:23.792Z,99670.35
2023-03-07T11:31:12.172Z,99669.42
2023-03-07T11:33:58.687Z,99659.59
2023-03-07T11:36:32.149Z,99657.45
2023-03-07T11:39:09.378Z,99655.83
2023-03-07T11:41:38.509Z,99649.67
2023-03-07T11:44:06.446Z,99649.66
2023-03-07T11:46:34.363Z,99649.67
2023-03-07T11:49:11.581Z,99646.94
2023-03-07T11:51:53.734Z,99647.77
2023-03-07T11:54:27.909Z,99641.77
2023-03-07T11:57:00.600Z,99639.63
2023-03-07T11:59:34.599Z,99630.27
2023-03-07T12:02:06.339Z,99631.14
2023-03-07T12:04:37.156Z,99627.67
2023-03-07T12:07:08.371Z,99623.84
2023-03-07T12:09:36.267Z,99622.55
2023-03-07T12:12:10.505Z,99632.80
2023-03-07T12:14:55.148Z,99620.59
2023-03-07T12:17:23.353Z,99626.54
2023-03-07T12:20:02.473Z,99626.87
2023-03-07T12:22:36.701Z,99627.09
2023-03-07T12:25:04.720Z,99629.19
2023-03-07T12:27:41.932Z,99624.22
2023-03-07T12:30:13.080Z,99622.95
2023-03-07T12:32:41.476Z,99616.45
2023-03-07T12:35:28.545Z,99623.22
2023-03-07T12:38:08.574Z,99621.15
2023-03-07T12:40:45.507Z,99625.29
2023-03-07T12:43:23.732Z,99630.15
2023-03-07T12:46:12.616Z,99624.88
2023-03-07T12:48:49.140Z,99629.79
2023-03-07T12:51:26.340Z,99623.54
2023-03-07T12:54:08.885Z,99621.67
2023-03-07T12:56:40.001Z,99618.25
2023-03-07T12:59:12.945Z,99612.21
2023-03-07T13:01:46.573Z,99610.02
2023-03-07T13:04:17.656Z,99607.86
2023-03-07T13:06:46.631Z,99609.23
2023-03-07T13:09:23.569Z,99611.55
2023-03-07T13:12:08.940Z,99612.42
2023-03-07T13:14:41.738Z,99609.13
2023-03-07T13:17:10.944Z,99607.36
2023-03-07T13:19:39.494Z,99610.82
2023-03-07T13:22:10.526Z,99608.13
2023-03-07T13:24:40.178Z,99608.02
2023-03-07T13:27:14.019Z,99607.64
2023-03-07T13:30:00.802Z,99603.66
2023-03-07T13:32:47.771Z,99600.73
2023-03-07T13:35:31.265Z,99603.20
2023-03-07T13:38:15.296Z,99601.61
2023-03-07T13:40:43.560Z,99609.07
2023-03-07T13:43:31.814Z,99608.96
2023-03-07T13:46:00.985Z,99604.38
2023-03-07T13:48:29.010Z,99609.25
2023-03-07T13:50:57.106Z,99605.04
2023-03-07T13:53:30.912Z,99605.30
2023-03-07T13:55:58.954Z,99604.25
2023-03-07T13:58:44.875Z,99603.57
2023-03-07T14:01:23.676Z,99601.86
2023-03-07T14:03:54.587Z,99600.55
2023-03-07T14:06:28.620Z,99603.27
2023-03-07T14:09:01.502Z,99608.64
2023-03-07T14:11:49.935Z,99602.09
2023-03-07T14:14:25.162Z,99606.06
2023-03-07T14:16:59.270Z,99606.78
2023-03-07T14:19:27.974Z,99610.18
2023-03-07T14:21:58.959Z,99607.36
2023-03-07T14:24:46.481Z,99607.74
2023-03-07T14:27:15.592Z,99604.89
2023-03-07T14:29:53.681Z,99606.54
2023-03-07T14:32:27.592Z,99603.38
2023-03-07T14:34:57.835Z,99594.48
2023-03-07T14:37:32.943Z,99597.04
2023-03-07T14:40:22.537Z,99603.05
2023-03-07T14:42:54.359Z,99608.97
2023-03-07T14:45:46.000Z,99608.14
2023-03-07T14:48:13.927Z,99609.25
2023-03-07T14:50:46.864Z,99605.41
2023-03-07T14:53:26.757Z,99602.45
2023-03-07T14:55:55.959Z,99604.42
2023-03-07T14:58:25.684Z,99610.73
2023-03-07T15:01:04.320Z,99609.34
2023-03-07T15:03:32.803Z,99604.78
2023-03-07T15:06:02.941Z,99605.13
2023-03-07T15:08:33.555Z,99604.98
2023-03-07T15:11:01.529Z,99606.94
2023-03-07T15:13:33.090Z,99606.90
2023-03-07T15:16:03.854Z,99605.57
2023-03-07T15:18:32.004Z,99601.05
2023-03-07T15:21:01.342Z,99604.44
2023-03-07T15:23:30.073Z,99603.52
2023-03-07T15:26:05.615Z,99597.42
2023-03-07T15:28:38.222Z,99604.31
2023-03-07T15:31:08.292Z,99601.00
2023-03-07T15:33:36.467Z,99600.03
2023-03-07T15:36:13.785Z,99601.80
2023-03-07T15:38:49.767Z,99598.86
2023-03-07T15:41:36.079Z,99596.39
2023-03-07T15:44:22.156Z,99599.05
2023-03-07T15:46:54.864Z,99597.24
2023-03-07T15:49:26.119Z,99596.80
2023-03-07T15:51:55.868Z,99597.63
2023-03-07T15:54:30.591Z,99597.18
2023-03-07T15:57:00.878Z,99598.65
2023-03-07T15:59:30.938Z,99595.56
2023-03-07T16:02:18.778Z,99602.40
2023-03-07T16:04:46.744Z,99599.63
2023-03-07T16:07:20.508Z,99601.92
2023-03-07T16:09:48.682Z,99601.53
2023-03-07T16:12:18.678Z,99607.27
2023-03-07T16:14:50.961Z,99612.80
2023-03-07T16:17:36.247Z,99611.36
2023-03-07T16:20:04.927Z,99614.25
2023-03-07T16:22:33.078Z,99617.66
2023-03-07T16:25:01.179Z,99618.13
2023-03-07T16:27:29.165Z,99624.65
2023-03-07T16:29:59.442Z,99623.39
2023-03-07T16:32:28.891Z,99627.84
2023-03-07T16:34:57.049Z,99626.64
2023-03-07T16:37:25.909Z,99631.94
2023-03-07T16:39:54.058Z,99628.38
2023-03-07T16:42:23.171Z,99631.73
2023-03-07T16:44:51.883Z,99633.59
2023-03-07T16:47:19.928Z,99632.58
2023-03-07T16:49:49.090Z,99637.53
2023-03-07T16:52:17.026Z,99639.86
2023-03-07T16:54:45.001Z,99637.82
2023-03-07T16:57:15.168Z,99644.14
2023-03-07T16:59:44.976Z,99646.50
2023-03-07T17:02:15.232Z,99647.66
2023-03-07T17:04:44.419Z,99657.89
2023-03-07T17:07:18.475Z,99657.23
2023-03-07T17:09:46.645Z,99660.45
2023-03-07T17:12:14.610Z,99663.96
2023-03-07T17:14:43.174Z,99661.27
2023-03-07T17:17:29.336Z,99662.38
2023-03-07T17:19:57.455Z,99663.27
2023-03-07T17:22:25.515Z,99662.10
2023-03-07T17:24:53.508Z,99663.16
2023-03-07T17:27:22.034Z,99663.68
2023-03-07T17:29:53.009Z,99665.88
2023-03-07T17:32:21.645Z,99667.70
2023-03-07T17:34:49.816Z,99671.31
2023-03-07T17:37:18.073Z,99671.45
2023-03-07T17:39:46.242Z,99673.59
2023-03-07T17:42:14.396Z,99674.04
2023-03-07T17:44:42.848Z,99676.40
2023-03-07T17:47:10.841Z,99673.45
2023-03-07T17:49:39.461Z,99675.34
2023-03-07T17:52:07.814Z,99676.02
2023-03-07T17:54:36.151Z,99677.08
2023-03-07T17:57:04.374Z,99674.50
2023-03-07T17:59:32.983Z,99677.15
2023-03-07T18:02:01.473Z,99680.73
2023-03-07T18:04:31.532Z,99684.84
2023-03-07T18:07:00.197Z,99689.83
2023-03-07T18:09:28.308Z,99685.04
2023-03-07T18:11:56.348Z,99688.80
2023-03-07T18:14:24.436Z,99687.66
2023-03-07T18:16:53.375Z,99689.63
2023-03-07T18:19:26.669Z,99691.05
2023-03-07T18:21:55.495Z,99692.52
2023-03-07T18:24:30.642Z,99691.92
2023-03-07T18:27:02.448Z,99695.73
2023-03-07T18:29:30.843Z,99694.90
2023-03-07T18:32:00.949Z,99692.64
2023-03-07T18:34:29.199Z,99688.83
2023-03-07T18:37:01.659Z,99690.52
2023-03-07T18:39:30.090Z,99689.66
2023-03-07T18:41:58.148Z,99688.52
2023-03-07T18:44:26.184Z,99694.17
2023-03-07T18:46:54.272Z,99690.64
2023-03-07T18:49:22.291Z,99691.79
2023-03-07T18:51:50.409Z,99692.81
2023-03-07T18:54:18.435Z,99690.21
2023-03-07T18:56:47.312Z,99691.20
2023-03-07T18:59:16.022Z,99691.27
2023-03-07T19:01:44.688Z,99693.67
2023-03-07T19:04:12.898Z,99695.60
2023-03-07T19:06:42.202Z,99695.57
2023-03-07T19:09:17.438Z,99694.52
2023-03-07T19:11:45.927Z,99694.48
2023-03-07T19:14:14.060Z,99695.44
2023-03-07T19:16:42.882Z,99694.15
2023-03-07T19:19:11.594Z,99693.34
2023-03-07T19:21:40.156Z,99690.23
2023-03-07T19:24:11.424Z,99691.88
2023-03-07T19:26:40.982Z,99695.63
2023-03-07T19:29:11.200Z,99695.42
2023-03-07T19:31:39.453Z,99693.42
2023-03-07T19:34:07.484Z,99691.58
2023-03-07T19:36:37.057Z,99688.76
2023-03-07T19:39:05.698Z,99687.36
2023-03-07T19:41:33.696Z,99687.42
2023-03-07T19:44:01.924Z,99687.04
2023-03-07T19:46:30.033Z,99690.61
2023-03-07T19:48:58.446Z,99695.02
2023-03-07T19:51:26.603Z,99695.70
2023-03-07T19:53:57.387Z,99697.31
2023-03-07T19:56:29.976Z,99695.56
2023-03-07T19:58:59.192Z,99695.96
2023-03-07T20:01:28.716Z,99693.48
2023-03-07T20:03:57.197Z,99691.02
2023-03-07T20:06:26.837Z,99692.45
2023-03-07T20:08:55.260Z,99686.27
2023-03-07T20:11:26.995Z,99684.54
2023-03-07T20:13:56.382Z,99685.80
2023-03-07T20:16:24.718Z,99686.25
2023-03-07T20:18:53.856Z,99684.02
2023-03-07T20:21:26.280Z,99687.64
2023-03-07T20:23:59.856Z,99687.99
2023-03-07T20:26:30.077Z,99684.33
2023-03-07T20:28:59.206Z,99688.90
2023-03-07T20:31:28.271Z,99685.83
2023-03-07T20:33:58.008Z,99683.52
2023-03-07T20:36:30.750Z,99680.08
2023-03-07T20:39:00.331Z,99680.38
2023-03-07T20:41:30.441Z,99678.85
2023-03-07T20:44:00.876Z,99681.20
2023-03-07T20:46:28.963Z,99680.35
2023-03-07T20:48:57.898Z,99683.52
2023-03-07T20:51:27.400Z,99680.61
2023-03-07T20:53:57.173Z,99678.94
2023-03-07T20:56:26.484Z,99678.36
2023-03-07T20:58:55.332Z,99677.56
2023-03-07T21:01:24.723Z,99678.24
2023-03-07T21:03:53.912Z,99679.13
2023-03-07T21:06:22.189Z,99677.73
2023-03-07T21:08:50.180Z,99681.30
2023-03-07T21:11:19.172Z,99682.38
2023-03-07T21:13:48.688Z,99680.27
2023-03-07T21:16:16.709Z,99681.85
2023-03-07T21:18:44.832Z,99680.80
2023-03-07T21:21:14.519Z,99684.58
2023-03-07T21:23:42.720Z,99681.83
2023-03-07T21:26:15.448Z,99681.57
2023-03-07T21:28:43.995Z,99679.44
2023-03-07T21:31:11.940Z,99676.98
2023-03-07T21:33:41.218Z,99671.81
2023-03-07T21:36:11.178Z,99671.92
2023-03-07T21:38:41.588Z,99669.01
2023-03-07T21:41:09.725Z,99668.13
2023-03-07T21:43:37.701Z,99670.08
2023-03-07T21:46:06.270Z,99669.77
2023-03-07T21:48:34.339Z,99672.34
2023-03-07T21:51:02.455Z,99679.17
2023-03-07T21:53:31.208Z,99691.64
2023-03-07T21:56:02.793Z,99686.83
2023-03-07T21:58:31.404Z,99684.20
2023-03-07T22:00:59.556Z,99687.78
2023-03-07T22:03:29.242Z,99691.21
2023-03-07T22:05:57.596Z,99688.60
2023-03-07T22:08:25.931Z,99682.80
2023-03-07T22:10:59.462Z,99683.09
2023-03-07T22:13:28.303Z,99682.99
2023-03-07T22:15:57.673Z,99682.46
2023-03-07T22:18:26.055Z,99683.25
2023-03-07T22:20:55.313Z,99681.58
2023-03-07T22:23:23.705Z,99680.00
2023-03-07T22:25:51.713Z,99681.02
2023-03-07T22:28:19.733Z,99678.90
2023-03-07T22:30:49.470Z,99676.48
2023-03-07T22:33:17.651Z,99672.44
2023-03-07T22:35:45.821Z,99673.96
2023-03-07T22:38:16.452Z,99669.95
2023-03-07T22:40:45.024Z,99672.73
2023-03-07T22:43:13.079Z,99673.05
2023-03-07T22:45:46.637Z,99670.16
2023-03-07T22:48:16.268Z,99670.88
2023-03-07T22:50:44.490Z,99675.52
2023-03-07T22:53:12.719Z,99670.98
2023-03-07T22:55:44.145Z,99676.06
2023-03-07T22:58:12.669Z,99680.70
2023-03-07T23:00:41.802Z,99680.30
2023-03-07T23:03:10.387Z,99679.85
2023-03-07T23:05:38.473Z,99680.39
2023-03-07T23:08:06.551Z,99684.98
2023-03-07T23:10:34.793Z,99682.39
2023-03-07T23:13:02.764Z,99684.14
2023-03-07T23:15:31.281Z,99682.99
2023-03-07T23:17:59.492Z,99686.36
2023-03-07T23:20:29.142Z,99687.85
2023-03-07T23:22:57.074Z,99687.21
2023-03-07T23:25:25.182Z,99692.66
2023-03-07T23:27:53.076Z,99689.59
2023-03-07T23:30:22.028Z,99692.94
2023-03-07T23:32:50.094Z,99701.77
2023-03-07T23:35:18.104Z,99698.84
2023-03-07T23:37:47.642Z,99700.10
2023-03-07T23:40:15.591Z,99699.29
2023-03-07T23:42:44.072Z,99699.16
2023-03-07T23:45:12.201Z,99700.34
2023-03-07T23:47:40.674Z,99698.47
2023-03-07T23:50:09.396Z,99699.10
2023-03-07T23:52:37.279Z,99696.98
2023-03-07T23:55:09.076Z,99703.06
2023-03-07T23:57:38.052Z,99705.67
